Andrew, Illinois
Current Conditions -  °F | °C
As of 4:52 PM on Sunday 21 Dec 2014 (Local Time) from KSPI Reporting Station
Clear Clear  
Wind Chill: 30°   Ceiling: Unl
Heat Index: 38°   Visibility: 10mi
Dew Point: 30°   Wind: 12mph
Humidity: 73%   Direction: 130°SE
Pressure: 30.03"   Gusts: NA
Location:  39.854°N, 89.6295°W
Report Text: KSPI 212252Z 13010KT 10SM CLR 03/M01 A3003 RMK AO2 SLP172 T00331011
Loading
Personal Weather Stations






























Interactive Weather Map New forecast layout! Learn more

10-Day Weather Forecast

Advertisements
Track Severe Weather on mobile